sensor_id;sensor_type;location;lat;lon;timestamp;pressure;altitude;pressure_sealevel;temperature;humidity
69153;BME280;56261;51.580;4.578;2022-11-20T00:00:01;101501.69;;;1.21;100.00
69153;BME280;56261;51.580;4.578;2022-11-20T00:02:26;101490.91;;;1.12;100.00
69153;BME280;56261;51.580;4.578;2022-11-20T00:04:51;101496.50;;;1.06;100.00
69153;BME280;56261;51.580;4.578;2022-11-20T00:07:17;101499.03;;;1.07;100.00
69153;BME280;56261;51.580;4.578;2022-11-20T00:09:42;101507.22;;;1.17;100.00
69153;BME280;56261;51.580;4.578;2022-11-20T00:12:07;101497.47;;;1.19;100.00
69153;BME280;56261;51.580;4.578;2022-11-20T00:14:33;101491.53;;;1.15;100.00
69153;BME280;56261;51.580;4.578;2022-11-20T00:16:58;101479.44;;;1.13;100.00
69153;BME280;56261;51.580;4.578;2022-11-20T00:19:23;101461.53;;;1.05;100.00
69153;BME280;56261;51.580;4.578;2022-11-20T00:21:49;101481.59;;;0.92;100.00
69153;BME280;56261;51.580;4.578;2022-11-20T00:24:16;101479.94;;;0.89;100.00
69153;BME280;56261;51.580;4.578;2022-11-20T00:26:41;101482.50;;;0.91;100.00
69153;BME280;56261;51.580;4.578;2022-11-20T00:29:08;101491.28;;;0.75;100.00
69153;BME280;56261;51.580;4.578;2022-11-20T00:31:34;101480.69;;;0.77;100.00
69153;BME280;56261;51.580;4.578;2022-11-20T00:34:00;101483.59;;;0.72;100.00
69153;BME280;56261;51.580;4.578;2022-11-20T00:36:27;101477.44;;;0.57;100.00
69153;BME280;56261;51.580;4.578;2022-11-20T00:38:54;101482.91;;;0.54;100.00
69153;BME280;56261;51.580;4.578;2022-11-20T00:41:19;101486.81;;;0.47;100.00
69153;BME280;56261;51.580;4.578;2022-11-20T00:43:45;101486.53;;;0.52;100.00
69153;BME280;56261;51.580;4.578;2022-11-20T00:46:15;101488.34;;;0.35;100.00
69153;BME280;56261;51.580;4.578;2022-11-20T00:48:42;101494.34;;;0.37;100.00
69153;BME280;56261;51.580;4.578;2022-11-20T00:51:12;101492.31;;;0.43;100.00
69153;BME280;56261;51.580;4.578;2022-11-20T00:53:38;101497.47;;;0.44;100.00
69153;BME280;56261;51.580;4.578;2022-11-20T00:56:10;101504.91;;;0.52;100.00
69153;BME280;56261;51.580;4.578;2022-11-20T00:58:37;101510.91;;;0.54;100.00
69153;BME280;56261;51.580;4.578;2022-11-20T01:01:11;101502.50;;;0.63;100.00
69153;BME280;56261;51.580;4.578;2022-11-20T01:03:39;101507.34;;;0.85;100.00
69153;BME280;56261;51.580;4.578;2022-11-20T01:06:10;101507.50;;;0.82;100.00
69153;BME280;56261;51.580;4.578;2022-11-20T01:08:37;101505.94;;;0.94;100.00
69153;BME280;56261;51.580;4.578;2022-11-20T01:11:07;101493.03;;;1.05;100.00
69153;BME280;56261;51.580;4.578;2022-11-20T01:13:34;101484.00;;;1.09;100.00
69153;BME280;56261;51.580;4.578;2022-11-20T01:16:05;101479.91;;;1.05;100.00
69153;BME280;56261;51.580;4.578;2022-11-20T01:18:31;101485.72;;;1.10;100.00
69153;BME280;56261;51.580;4.578;2022-11-20T01:21:01;101486.84;;;1.06;100.00
69153;BME280;56261;51.580;4.578;2022-11-20T01:23:30;101495.34;;;0.95;100.00
69153;BME280;56261;51.580;4.578;2022-11-20T01:25:56;101484.84;;;0.95;100.00
69153;BME280;56261;51.580;4.578;2022-11-20T01:28:21;101481.75;;;0.89;100.00
69153;BME280;56261;51.580;4.578;2022-11-20T01:30:47;101495.56;;;1.07;100.00
69153;BME280;56261;51.580;4.578;2022-11-20T01:33:12;101488.44;;;1.09;100.00
69153;BME280;56261;51.580;4.578;2022-11-20T01:35:37;101483.38;;;1.06;100.00
69153;BME280;56261;51.580;4.578;2022-11-20T01:38:03;101478.31;;;1.17;100.00
69153;BME280;56261;51.580;4.578;2022-11-20T01:40:28;101485.25;;;1.03;100.00
69153;BME280;56261;51.580;4.578;2022-11-20T01:43:09;101471.63;;;0.97;100.00
69153;BME280;56261;51.580;4.578;2022-11-20T01:46:06;101481.38;;;0.95;100.00
69153;BME280;56261;51.580;4.578;2022-11-20T01:51:29;101482.53;;;1.05;100.00
69153;BME280;56261;51.580;4.578;2022-11-20T01:54:02;101476.41;;;1.04;100.00
69153;BME280;56261;51.580;4.578;2022-11-20T01:56:31;101472.88;;;1.06;100.00
69153;BME280;56261;51.580;4.578;2022-11-20T01:59:01;101478.13;;;1.06;100.00
69153;BME280;56261;51.580;4.578;2022-11-20T02:01:29;101476.25;;;1.08;100.00
69153;BME280;56261;51.580;4.578;2022-11-20T02:03:55;101473.16;;;1.15;100.00
69153;BME280;56261;51.580;4.578;2022-11-20T02:06:28;101466.66;;;0.92;100.00
69153;BME280;56261;51.580;4.578;2022-11-20T02:08:54;101470.03;;;0.94;100.00
69153;BME280;56261;51.580;4.578;2022-11-20T02:11:20;101477.38;;;1.03;100.00
69153;BME280;56261;51.580;4.578;2022-11-20T02:13:46;101481.88;;;1.01;100.00
69153;BME280;56261;51.580;4.578;2022-11-20T02:16:30;101478.69;;;1.11;100.00
69153;BME280;56261;51.580;4.578;2022-11-20T02:18:58;101472.09;;;1.18;100.00
69153;BME280;56261;51.580;4.578;2022-11-20T02:21:30;101486.38;;;1.14;100.00
69153;BME280;56261;51.580;4.578;2022-11-20T02:24:08;101475.28;;;1.09;100.00
69153;BME280;56261;51.580;4.578;2022-11-20T02:26:41;101473.44;;;1.11;100.00
69153;BME280;56261;51.580;4.578;2022-11-20T02:29:07;101472.78;;;1.21;100.00
69153;BME280;56261;51.580;4.578;2022-11-20T02:31:36;101469.59;;;1.16;100.00
69153;BME280;56261;51.580;4.578;2022-11-20T02:34:03;101465.19;;;1.17;100.00
69153;BME280;56261;51.580;4.578;2022-11-20T02:36:30;101460.97;;;1.14;100.00
69153;BME280;56261;51.580;4.578;2022-11-20T02:38:57;101462.91;;;1.25;100.00
69153;BME280;56261;51.580;4.578;2022-11-20T02:41:30;101462.56;;;1.17;100.00
69153;BME280;56261;51.580;4.578;2022-11-20T02:43:56;101470.25;;;1.20;100.00
69153;BME280;56261;51.580;4.578;2022-11-20T02:46:21;101456.19;;;1.21;100.00
69153;BME280;56261;51.580;4.578;2022-11-20T02:48:46;101451.00;;;1.34;100.00
69153;BME280;56261;51.580;4.578;2022-11-20T02:51:12;101450.44;;;1.29;100.00
69153;BME280;56261;51.580;4.578;2022-11-20T02:53:37;101447.72;;;1.30;100.00
69153;BME280;56261;51.580;4.578;2022-11-20T02:56:03;101449.78;;;1.25;100.00
69153;BME280;56261;51.580;4.578;2022-11-20T02:58:28;101462.75;;;1.28;100.00
69153;BME280;56261;51.580;4.578;2022-11-20T03:00:53;101443.31;;;1.16;100.00
69153;BME280;56261;51.580;4.578;2022-11-20T03:03:19;101458.41;;;1.27;100.00
69153;BME280;56261;51.580;4.578;2022-11-20T03:05:44;101438.06;;;1.31;100.00
69153;BME280;56261;51.580;4.578;2022-11-20T03:08:09;101433.16;;;1.24;100.00
69153;BME280;56261;51.580;4.578;2022-11-20T03:10:35;101429.25;;;1.17;100.00
69153;BME280;56261;51.580;4.578;2022-11-20T03:13:00;101426.63;;;1.17;100.00
69153;BME280;56261;51.580;4.578;2022-11-20T03:15:28;101428.19;;;1.20;100.00
69153;BME280;56261;51.580;4.578;2022-11-20T03:17:54;101422.66;;;1.24;100.00
69153;BME280;56261;51.580;4.578;2022-11-20T03:20:20;101418.06;;;1.28;100.00
69153;BME280;56261;51.580;4.578;2022-11-20T03:22:45;101422.66;;;1.24;100.00
69153;BME280;56261;51.580;4.578;2022-11-20T03:25:11;101419.19;;;1.24;100.00
69153;BME280;56261;51.580;4.578;2022-11-20T03:27:36;101413.19;;;1.36;100.00
69153;BME280;56261;51.580;4.578;2022-11-20T03:30:03;101409.97;;;1.45;100.00
69153;BME280;56261;51.580;4.578;2022-11-20T03:32:28;101407.81;;;1.52;100.00
69153;BME280;56261;51.580;4.578;2022-11-20T03:34:54;101413.19;;;1.36;100.00
69153;BME280;56261;51.580;4.578;2022-11-20T03:37:19;101396.84;;;1.31;100.00
69153;BME280;56261;51.580;4.578;2022-11-20T03:39:44;101399.56;;;1.44;100.00
69153;BME280;56261;51.580;4.578;2022-11-20T03:42:10;101404.88;;;1.57;100.00
69153;BME280;56261;51.580;4.578;2022-11-20T03:44:54;101407.97;;;1.63;100.00
69153;BME280;56261;51.580;4.578;2022-11-20T03:47:19;101406.38;;;1.61;100.00
69153;BME280;56261;51.580;4.578;2022-11-20T03:49:45;101400.25;;;1.60;100.00
69153;BME280;56261;51.580;4.578;2022-11-20T03:52:10;101407.97;;;1.63;100.00
69153;BME280;56261;51.580;4.578;2022-11-20T03:54:35;101402.06;;;1.60;100.00
69153;BME280;56261;51.580;4.578;2022-11-20T03:57:01;101401.13;;;1.47;100.00
69153;BME280;56261;51.580;4.578;2022-11-20T03:59:26;101395.59;;;1.51;100.00
69153;BME280;56261;51.580;4.578;2022-11-20T04:01:52;101387.16;;;1.46;100.00
69153;BME280;56261;51.580;4.578;2022-11-20T04:04:17;101385.13;;;1.37;100.00
69153;BME280;56261;51.580;4.578;2022-11-20T04:06:42;101378.28;;;1.34;100.00
69153;BME280;56261;51.580;4.578;2022-11-20T04:09:08;101374.03;;;1.32;100.00
69153;BME280;56261;51.580;4.578;2022-11-20T04:11:35;101367.41;;;1.26;100.00
69153;BME280;56261;51.580;4.578;2022-11-20T04:14:03;101369.72;;;1.31;100.00
69153;BME280;56261;51.580;4.578;2022-11-20T04:16:31;101355.56;;;1.33;100.00
69153;BME280;56261;51.580;4.578;2022-11-20T04:18:59;101358.47;;;1.29;100.00
69153;BME280;56261;51.580;4.578;2022-11-20T04:21:25;101353.31;;;1.27;100.00
69153;BME280;56261;51.580;4.578;2022-11-20T04:23:51;101366.66;;;1.24;100.00
69153;BME280;56261;51.580;4.578;2022-11-20T04:26:18;101359.31;;;1.29;100.00
69153;BME280;56261;51.580;4.578;2022-11-20T04:28:44;101359.50;;;1.26;100.00
69153;BME280;56261;51.580;4.578;2022-11-20T04:31:15;101360.44;;;1.25;100.00
69153;BME280;56261;51.580;4.578;2022-11-20T04:33:41;101357.25;;;1.34;100.00
69153;BME280;56261;51.580;4.578;2022-11-20T04:36:11;101354.34;;;1.24;100.00
69153;BME280;56261;51.580;4.578;2022-11-20T04:38:37;101360.34;;;1.27;100.00
69153;BME280;56261;51.580;4.578;2022-11-20T04:41:05;101360.94;;;1.17;100.00
69153;BME280;56261;51.580;4.578;2022-11-20T04:43:31;101365.06;;;1.21;100.00
69153;BME280;56261;51.580;4.578;2022-11-20T04:45:57;101361.78;;;1.18;100.00
69153;BME280;56261;51.580;4.578;2022-11-20T04:48:24;101355.38;;;1.22;100.00
69153;BME280;56261;51.580;4.578;2022-11-20T04:50:50;101357.84;;;1.11;100.00
69153;BME280;56261;51.580;4.578;2022-11-20T04:53:15;101354.66;;;0.91;100.00
69153;BME280;56261;51.580;4.578;2022-11-20T04:55:41;101359.28;;;0.88;100.00
69153;BME280;56261;51.580;4.578;2022-11-20T04:58:06;101350.72;;;0.84;100.00
69153;BME280;56261;51.580;4.578;2022-11-20T05:00:32;101344.25;;;0.75;100.00
69153;BME280;56261;51.580;4.578;2022-11-20T05:02:57;101357.22;;;0.78;100.00
69153;BME280;56261;51.580;4.578;2022-11-20T05:05:23;101352.50;;;0.69;100.00
69153;BME280;56261;51.580;4.578;2022-11-20T05:07:48;101350.28;;;0.63;100.00
69153;BME280;56261;51.580;4.578;2022-11-20T05:10:14;101353.25;;;0.57;100.00
69153;BME280;56261;51.580;4.578;2022-11-20T05:12:39;101352.31;;;0.58;100.00
69153;BME280;56261;51.580;4.578;2022-11-20T05:15:05;101359.72;;;0.51;100.00
69153;BME280;56261;51.580;4.578;2022-11-20T05:17:30;101357.19;;;0.50;100.00
69153;BME280;56261;51.580;4.578;2022-11-20T05:19:56;101363.38;;;0.49;100.00
69153;BME280;56261;51.580;4.578;2022-11-20T05:22:21;101353.63;;;0.51;100.00
69153;BME280;56261;51.580;4.578;2022-11-20T05:24:46;101361.50;;;0.51;100.00
69153;BME280;56261;51.580;4.578;2022-11-20T05:27:12;101364.47;;;0.45;100.00
69153;BME280;56261;51.580;4.578;2022-11-20T05:29:37;101368.06;;;0.44;100.00
69153;BME280;56261;51.580;4.578;2022-11-20T05:32:03;101365.16;;;0.48;100.00
69153;BME280;56261;51.580;4.578;2022-11-20T05:34:28;101371.63;;;0.43;100.00
69153;BME280;56261;51.580;4.578;2022-11-20T05:36:53;101371.50;;;0.44;100.00
69153;BME280;56261;51.580;4.578;2022-11-20T05:39:19;101365.06;;;0.50;100.00
69153;BME280;56261;51.580;4.578;2022-11-20T05:41:44;101361.06;;;0.58;100.00
69153;BME280;56261;51.580;4.578;2022-11-20T05:44:13;101356.56;;;0.60;100.00
69153;BME280;56261;51.580;4.578;2022-11-20T05:46:38;101347.34;;;0.53;100.00
69153;BME280;56261;51.580;4.578;2022-11-20T05:49:03;101341.34;;;0.51;100.00
69153;BME280;56261;51.580;4.578;2022-11-20T05:51:29;101342.38;;;0.49;100.00
69153;BME280;56261;51.580;4.578;2022-11-20T05:53:57;101336.84;;;0.39;100.00
69153;BME280;56261;51.580;4.578;2022-11-20T05:56:23;101332.63;;;0.36;100.00
69153;BME280;56261;51.580;4.578;2022-11-20T05:58:49;101325.19;;;0.29;100.00
69153;BME280;56261;51.580;4.578;2022-11-20T06:01:25;101315.44;;;0.16;100.00
69153;BME280;56261;51.580;4.578;2022-11-20T06:03:52;101311.72;;;0.20;100.00
69153;BME280;56261;51.580;4.578;2022-11-20T06:06:19;101318.06;;;0.16;100.00
69153;BME280;56261;51.580;4.578;2022-11-20T06:08:45;101317.31;;;0.14;100.00
69153;BME280;56261;51.580;4.578;2022-11-20T06:11:12;101313.25;;;0.09;100.00
69153;BME280;56261;51.580;4.578;2022-11-20T06:13:38;101312.13;;;-0.02;100.00
69153;BME280;56261;51.580;4.578;2022-11-20T06:16:04;101322.44;;;0.02;100.00
69153;BME280;56261;51.580;4.578;2022-11-20T06:18:30;101313.66;;;0.03;100.00
69153;BME280;56261;51.580;4.578;2022-11-20T06:21:06;101304.84;;;0.04;100.00
69153;BME280;56261;51.580;4.578;2022-11-20T06:23:33;101305.19;;;-0.03;100.00
69153;BME280;56261;51.580;4.578;2022-11-20T06:26:06;101308.75;;;-0.04;100.00
69153;BME280;56261;51.580;4.578;2022-11-20T06:28:32;101309.84;;;-0.08;100.00
69153;BME280;56261;51.580;4.578;2022-11-20T06:30:58;101322.69;;;-0.03;100.00
69153;BME280;56261;51.580;4.578;2022-11-20T06:33:24;101318.47;;;-0.06;100.00
69153;BME280;56261;51.580;4.578;2022-11-20T06:35:49;101319.16;;;-0.02;100.00
69153;BME280;56261;51.580;4.578;2022-11-20T06:38:15;101308.19;;;-0.09;100.00
69153;BME280;56261;51.580;4.578;2022-11-20T06:40:41;101308.19;;;-0.09;100.00
69153;BME280;56261;51.580;4.578;2022-11-20T06:43:08;101297.88;;;-0.12;100.00
69153;BME280;56261;51.580;4.578;2022-11-20T06:45:33;101298.13;;;-0.16;100.00
69153;BME280;56261;51.580;4.578;2022-11-20T06:47:58;101302.00;;;-0.08;100.00
69153;BME280;56261;51.580;4.578;2022-11-20T06:50:24;101316.88;;;-0.08;100.00
69153;BME280;56261;51.580;4.578;2022-11-20T06:52:49;101324.91;;;0.05;100.00
69153;BME280;56261;51.580;4.578;2022-11-20T06:55:14;101317.25;;;0.16;100.00
69153;BME280;56261;51.580;4.578;2022-11-20T06:57:40;101312.34;;;0.24;100.00
69153;BME280;56261;51.580;4.578;2022-11-20T07:00:06;101309.28;;;0.32;100.00
69153;BME280;56261;51.580;4.578;2022-11-20T07:02:34;101303.41;;;0.43;100.00
69153;BME280;56261;51.580;4.578;2022-11-20T07:04:59;101313.16;;;0.55;100.00
69153;BME280;56261;51.580;4.578;2022-11-20T07:07:25;101307.16;;;0.67;100.00
69153;BME280;56261;51.580;4.578;2022-11-20T07:09:50;101301.72;;;0.70;100.00
69153;BME280;56261;51.580;4.578;2022-11-20T07:12:16;101293.91;;;0.69;100.00
69153;BME280;56261;51.580;4.578;2022-11-20T07:14:41;101283.72;;;0.50;100.00
69153;BME280;56261;51.580;4.578;2022-11-20T07:17:07;101293.44;;;0.62;100.00
69153;BME280;56261;51.580;4.578;2022-11-20T07:19:32;101293.84;;;0.70;100.00
69153;BME280;56261;51.580;4.578;2022-11-20T07:21:57;101295.13;;;0.77;100.00
69153;BME280;56261;51.580;4.578;2022-11-20T07:24:23;101295.81;;;0.81;100.00
69153;BME280;56261;51.580;4.578;2022-11-20T07:26:48;101297.31;;;0.85;100.00
69153;BME280;56261;51.580;4.578;2022-11-20T07:29:16;101307.97;;;0.96;100.00
69153;BME280;56261;51.580;4.578;2022-11-20T07:31:42;101303.34;;;1.00;100.00
69153;BME280;56261;51.580;4.578;2022-11-20T07:34:08;101297.81;;;1.04;100.00
69153;BME280;56261;51.580;4.578;2022-11-20T07:36:33;101302.72;;;0.96;100.00
69153;BME280;56261;51.580;4.578;2022-11-20T07:38:59;101294.84;;;0.96;100.00
69153;BME280;56261;51.580;4.578;2022-11-20T07:41:24;101307.22;;;0.94;100.00
69153;BME280;56261;51.580;4.578;2022-11-20T07:43:50;101305.94;;;0.87;100.00
69153;BME280;56261;51.580;4.578;2022-11-20T07:46:15;101318.47;;;0.96;100.00
69153;BME280;56261;51.580;4.578;2022-11-20T07:48:40;101310.78;;;1.08;100.00
69153;BME280;56261;51.580;4.578;2022-11-20T07:51:06;101316.41;;;1.01;100.00
69153;BME280;56261;51.580;4.578;2022-11-20T07:53:31;101310.94;;;1.04;100.00
69153;BME280;56261;51.580;4.578;2022-11-20T07:56:00;101301.66;;;1.13;100.00
69153;BME280;56261;51.580;4.578;2022-11-20T07:58:26;101302.47;;;1.14;100.00
69153;BME280;56261;51.580;4.578;2022-11-20T08:00:53;101312.97;;;1.28;100.00
69153;BME280;56261;51.580;4.578;2022-11-20T08:03:19;101306.13;;;1.26;100.00
69153;BME280;56261;51.580;4.578;2022-11-20T08:05:44;101312.97;;;1.28;100.00
69153;BME280;56261;51.580;4.578;2022-11-20T08:08:10;101323.84;;;1.36;100.00
69153;BME280;56261;51.580;4.578;2022-11-20T08:10:35;101307.66;;;1.42;100.00
69153;BME280;56261;51.580;4.578;2022-11-20T08:13:00;101310.84;;;1.48;100.00
69153;BME280;56261;51.580;4.578;2022-11-20T08:15:48;101296.97;;;1.45;100.00
69153;BME280;56261;51.580;4.578;2022-11-20T08:18:17;101304.09;;;1.43;100.00
69153;BME280;56261;51.580;4.578;2022-11-20T08:20:43;101302.84;;;1.49;100.00
69153;BME280;56261;51.580;4.578;2022-11-20T08:23:08;101302.22;;;1.45;100.00
69153;BME280;56261;51.580;4.578;2022-11-20T08:25:35;101303.75;;;1.35;100.00
69153;BME280;56261;51.580;4.578;2022-11-20T08:28:07;101296.84;;;1.47;100.00
69153;BME280;56261;51.580;4.578;2022-11-20T08:30:34;101299.81;;;1.55;100.00
69153;BME280;56261;51.580;4.578;2022-11-20T08:33:07;101296.53;;;1.52;100.00
69153;BME280;56261;51.580;4.578;2022-11-20T08:35:36;101292.78;;;1.56;100.00
69153;BME280;56261;51.580;4.578;2022-11-20T08:38:06;101297.84;;;1.59;100.00
69153;BME280;56261;51.580;4.578;2022-11-20T08:40:32;101291.72;;;1.58;100.00
69153;BME280;56261;51.580;4.578;2022-11-20T08:42:57;101286.13;;;1.77;100.00
69153;BME280;56261;51.580;4.578;2022-11-20T08:45:23;101278.66;;;1.84;100.00
69153;BME280;56261;51.580;4.578;2022-11-20T08:47:48;101288.22;;;1.85;100.00
69153;BME280;56261;51.580;4.578;2022-11-20T08:50:15;101281.72;;;1.91;100.00
69153;BME280;56261;51.580;4.578;2022-11-20T08:52:42;101263.22;;;2.05;100.00
69153;BME280;56261;51.580;4.578;2022-11-20T08:55:08;101252.16;;;2.00;100.00
69153;BME280;56261;51.580;4.578;2022-11-20T08:57:35;101263.22;;;2.05;100.00
69153;BME280;56261;51.580;4.578;2022-11-20T09:00:00;101248.31;;;2.05;100.00
69153;BME280;56261;51.580;4.578;2022-11-20T09:02:26;101248.59;;;2.14;100.00
69153;BME280;56261;51.580;4.578;2022-11-20T09:04:52;101248.59;;;2.14;100.00
69153;BME280;56261;51.580;4.578;2022-11-20T09:07:19;101238.59;;;2.32;100.00
69153;BME280;56261;51.580;4.578;2022-11-20T09:09:44;101237.13;;;2.40;100.00
69153;BME280;56261;51.580;4.578;2022-11-20T09:12:10;101225.97;;;2.37;100.00
69153;BME280;56261;51.580;4.578;2022-11-20T09:14:35;101231.94;;;2.39;100.00
69153;BME280;56261;51.580;4.578;2022-11-20T09:17:00;101223.19;;;2.51;100.00
69153;BME280;56261;51.580;4.578;2022-11-20T09:19:26;101226.00;;;2.61;100.00
69153;BME280;56261;51.580;4.578;2022-11-20T09:21:51;101205.59;;;2.64;100.00
69153;BME280;56261;51.580;4.578;2022-11-20T09:24:17;101203.25;;;2.73;100.00
69153;BME280;56261;51.580;4.578;2022-11-20T09:26:44;101196.47;;;2.81;100.00
69153;BME280;56261;51.580;4.578;2022-11-20T09:29:09;101199.31;;;2.78;100.00
69153;BME280;56261;51.580;4.578;2022-11-20T09:31:34;101193.00;;;2.81;100.00
69153;BME280;56261;51.580;4.578;2022-11-20T09:34:00;101195.28;;;2.85;100.00
69153;BME280;56261;51.580;4.578;2022-11-20T09:36:25;101188.97;;;2.88;100.00
69153;BME280;56261;51.580;4.578;2022-11-20T09:38:51;101188.97;;;2.88;100.00
69153;BME280;56261;51.580;4.578;2022-11-20T09:44:07;101181.91;;;2.88;100.00
69153;BME280;56261;51.580;4.578;2022-11-20T09:46:53;101176.81;;;2.98;100.00
69153;BME280;56261;51.580;4.578;2022-11-20T09:51:58;101171.03;;;3.17;100.00
69153;BME280;56261;51.580;4.578;2022-11-20T09:54:35;101165.66;;;3.30;100.00
69153;BME280;56261;51.580;4.578;2022-11-20T09:57:14;101159.19;;;3.23;100.00
69153;BME280;56261;51.580;4.578;2022-11-20T09:59:43;101168.94;;;3.33;100.00
69153;BME280;56261;51.580;4.578;2022-11-20T10:21:29;101130.16;;;3.47;100.00
69153;BME280;56261;51.580;4.578;2022-11-20T10:27:12;101123.09;;;3.59;100.00
69153;BME280;56261;51.580;4.578;2022-11-20T10:29:46;101118.66;;;3.59;100.00
69153;BME280;56261;51.580;4.578;2022-11-20T10:32:20;101114.59;;;3.55;100.00
69153;BME280;56261;51.580;4.578;2022-11-20T10:34:59;101104.50;;;3.49;100.00
69153;BME280;56261;51.580;4.578;2022-11-20T10:37:26;101096.59;;;3.49;100.00
69153;BME280;56261;51.580;4.578;2022-11-20T10:40:04;101081.88;;;3.69;100.00
69153;BME280;56261;51.580;4.578;2022-11-20T10:42:51;101083.31;;;3.84;100.00
69153;BME280;56261;51.580;4.578;2022-11-20T10:47:45;101089.44;;;3.85;100.00
69153;BME280;56261;51.580;4.578;2022-11-20T10:50:16;101082.59;;;3.82;100.00
69153;BME280;56261;51.580;4.578;2022-11-20T10:55:52;101057.78;;;3.85;100.00
69153;BME280;56261;51.580;4.578;2022-11-20T11:01:20;101039.66;;;3.80;100.00
69153;BME280;56261;51.580;4.578;2022-11-20T11:03:49;101037.03;;;3.80;100.00
69153;BME280;56261;51.580;4.578;2022-11-20T11:06:30;101025.66;;;3.68;100.00
69153;BME280;56261;51.580;4.578;2022-11-20T11:09:02;101023.22;;;3.77;100.00
69153;BME280;56261;51.580;4.578;2022-11-20T11:11:32;101023.13;;;3.78;100.00
69153;BME280;56261;51.580;4.578;2022-11-20T11:16:34;101009.28;;;3.97;100.00
69153;BME280;56261;51.580;4.578;2022-11-20T11:19:10;101019.38;;;3.92;100.00
69153;BME280;56261;51.580;4.578;2022-11-20T11:21:37;100999.06;;;4.04;100.00
69153;BME280;56261;51.580;4.578;2022-11-20T11:24:19;100987.06;;;4.22;100.00
69153;BME280;56261;51.580;4.578;2022-11-20T11:26:51;100978.66;;;4.17;100.00
69153;BME280;56261;51.580;4.578;2022-11-20T11:29:18;100977.06;;;4.26;100.00
69153;BME280;56261;51.580;4.578;2022-11-20T11:31:43;100976.78;;;4.40;100.00
69153;BME280;56261;51.580;4.578;2022-11-20T11:34:13;100974.59;;;4.45;100.00
69153;BME280;56261;51.580;4.578;2022-11-20T11:36:40;100955.28;;;4.45;100.00
69153;BME280;56261;51.580;4.578;2022-11-20T11:39:11;100964.69;;;4.58;100.00
69153;BME280;56261;51.580;4.578;2022-11-20T11:41:39;100952.06;;;4.62;100.00
69153;BME280;56261;51.580;4.578;2022-11-20T11:44:30;100949.41;;;4.83;100.00
69153;BME280;56261;51.580;4.578;2022-11-20T11:47:25;100942.28;;;4.74;100.00
69153;BME280;56261;51.580;4.578;2022-11-20T11:52:55;100934.31;;;4.95;100.00
69153;BME280;56261;51.580;4.578;2022-11-20T11:56:06;100936.72;;;4.98;100.00
69153;BME280;56261;51.580;4.578;2022-11-20T11:58:41;100919.53;;;4.83;100.00
69153;BME280;56261;51.580;4.578;2022-11-20T12:03:38;100909.13;;;4.91;100.00
69153;BME280;56261;51.580;4.578;2022-11-20T12:06:14;100892.03;;;4.95;100.00
69153;BME280;56261;51.580;4.578;2022-11-20T12:11:54;100894.94;;;5.23;100.00
69153;BME280;56261;51.580;4.578;2022-11-20T12:14:34;100885.19;;;5.23;100.00
69153;BME280;56261;51.580;4.578;2022-11-20T12:17:01;100879.09;;;5.23;100.00
69153;BME280;56261;51.580;4.578;2022-11-20T12:19:30;100880.03;;;5.22;100.00
69153;BME280;56261;51.580;4.578;2022-11-20T12:25:26;100873.28;;;5.38;100.00
69153;BME280;56261;51.580;4.578;2022-11-20T12:30:21;100856.38;;;5.20;100.00
69153;BME280;56261;51.580;4.578;2022-11-20T12:33:15;100851.25;;;5.18;100.00
69153;BME280;56261;51.580;4.578;2022-11-20T12:41:37;100822.47;;;5.35;100.00
69153;BME280;56261;51.580;4.578;2022-11-20T12:44:56;100814.09;;;5.30;100.00
69153;BME280;56261;51.580;4.578;2022-11-20T12:55:59;100810.38;;;5.61;100.00
69153;BME280;56261;51.580;4.578;2022-11-20T13:01:48;100795.50;;;5.60;100.00
69153;BME280;56261;51.580;4.578;2022-11-20T13:04:47;100781.69;;;5.57;100.00
69153;BME280;56261;51.580;4.578;2022-11-20T13:07:19;100787.16;;;5.65;100.00
69153;BME280;56261;51.580;4.578;2022-11-20T13:09:48;100769.19;;;5.59;100.00
69153;BME280;56261;51.580;4.578;2022-11-20T13:14:51;100762.06;;;5.59;100.00
69153;BME280;56261;51.580;4.578;2022-11-20T13:19:55;100753.16;;;5.60;100.00
69153;BME280;56261;51.580;4.578;2022-11-20T13:22:29;100753.16;;;5.60;100.00
69153;BME280;56261;51.580;4.578;2022-11-20T13:24:55;100747.59;;;5.64;100.00
69153;BME280;56261;51.580;4.578;2022-11-20T13:27:21;100739.22;;;5.68;100.00
69153;BME280;56261;51.580;4.578;2022-11-20T13:30:24;100740.59;;;5.62;100.00
69153;BME280;56261;51.580;4.578;2022-11-20T13:33:36;100733.81;;;5.70;100.00
69153;BME280;56261;51.580;4.578;2022-11-20T13:35:40;100719.88;;;5.68;100.00
69153;BME280;56261;51.580;4.578;2022-11-20T13:38:14;100711.94;;;5.68;100.00
69153;BME280;56261;51.580;4.578;2022-11-20T13:40:58;100702.75;;;5.72;100.00
69153;BME280;56261;51.580;4.578;2022-11-20T13:43:41;100697.63;;;5.60;100.00
69153;BME280;56261;51.580;4.578;2022-11-20T13:46:08;100686.03;;;5.61;100.00
69153;BME280;56261;51.580;4.578;2022-11-20T13:48:41;100674.22;;;5.66;100.00
69153;BME280;56261;51.580;4.578;2022-11-20T13:56:28;100657.06;;;5.70;100.00
69153;BME280;56261;51.580;4.578;2022-11-20T13:59:07;100656.47;;;5.76;100.00
69153;BME280;56261;51.580;4.578;2022-11-20T14:01:37;100632.53;;;5.77;100.00
69153;BME280;56261;51.580;4.578;2022-11-20T14:04:07;100627.94;;;5.79;100.00
69153;BME280;56261;51.580;4.578;2022-11-20T14:06:41;100626.41;;;5.77;100.00
69153;BME280;56261;51.580;4.578;2022-11-20T14:09:12;100614.56;;;5.81;100.00
69153;BME280;56261;51.580;4.578;2022-11-20T14:11:45;100600.72;;;5.87;100.00
69153;BME280;56261;51.580;4.578;2022-11-20T14:14:18;100610.91;;;5.92;100.00
69153;BME280;56261;51.580;4.578;2022-11-20T14:16:45;100623.59;;;5.88;100.00
69153;BME280;56261;51.580;4.578;2022-11-20T14:21:49;100601.97;;;5.93;100.00
69153;BME280;56261;51.580;4.578;2022-11-20T14:24:19;100592.66;;;5.98;100.00